Corapeake, North Carolina
Current Conditions -  °F | °C
As of 8:15 PM on Tuesday 27 Jan 2015 (Local Time) from KSFQ Reporting Station
Overcast Overcast  
Wind Chill: -3°   Ceiling: 9500
Heat Index:   Visibility: 10mi
Dew Point: -2°   Wind: 8mph
Humidity: 81%   Direction: 300°WNW
Pressure: 29.89"   Gusts: NA
Location:  36.53°N, 76.58°W
Report Text: KSFQ 280115Z AUTO 30007KT 10SM OVC095 01/M02 A2989 RMK AO2 T00091020
Loading
Personal Weather Stations






























Interactive Weather Map New forecast layout! Learn more

10-Day Weather Forecast

Advertisements
Track Severe Weather on mobile